Angela, Montana
Current Conditions -  °F | °C
As of 7:53 PM on Saturday 22 Nov 2014 (Local Time) from KMLS Reporting Station
Overcast Overcast  
Wind Chill: 35°   Ceiling: 9500
Heat Index: 43°   Visibility: 10mi
Dew Point: 24°   Wind: 16mph
Humidity: 47%   Direction: 290°WNW
Pressure: 29.44"   Gusts: NA
Location:  46.73°N, 106.2°W
Report Text: KMLS 230253Z AUTO 29014KT 10SM OVC095 06/M04 A2944 RMK AO2 SLP982 T00611044 51033
Loading
Personal Weather Stations






























Interactive Weather Map New forecast layout! Learn more

10-Day Weather Forecast

Advertisements
Track Severe Weather on mobile